createdAt,value
2022-09-28T00:01:25.161Z,2.50
2022-09-28T00:03:59.861Z,2.83
2022-09-28T00:06:30.167Z,2.90
2022-09-28T00:08:58.794Z,2.33
2022-09-28T00:11:29.245Z,2.80
2022-09-28T00:14:01.467Z,2.83
2022-09-28T00:16:31.888Z,2.87
2022-09-28T00:19:02.260Z,2.73
2022-09-28T00:21:32.294Z,2.80
2022-09-28T00:24:15.679Z,2.50
2022-09-28T00:26:46.939Z,2.53
2022-09-28T00:29:26.618Z,2.30
2022-09-28T00:31:59.958Z,2.90
2022-09-28T00:34:32.300Z,2.70
2022-09-28T00:37:02.006Z,3.30
2022-09-28T00:39:31.685Z,2.80
2022-09-28T00:42:00.611Z,2.43
2022-09-28T00:44:40.113Z,2.90
2022-09-28T00:47:35.499Z,2.30
2022-09-28T00:50:11.989Z,2.30
2022-09-28T00:52:43.963Z,2.80
2022-09-28T00:55:17.036Z,2.37
2022-09-28T00:57:49.692Z,2.10
2022-09-28T01:00:18.196Z,2.50
2022-09-28T01:02:48.256Z,3.40
2022-09-28T01:05:19.051Z,2.97
2022-09-28T01:07:48.476Z,2.97
2022-09-28T01:10:17.052Z,2.93
2022-09-28T01:12:45.403Z,3.77
2022-09-28T01:15:14.748Z,3.97
2022-09-28T01:17:54.147Z,2.73
2022-09-28T01:20:41.992Z,3.20
2022-09-28T01:23:59.282Z,2.63
2022-09-28T01:27:01.643Z,2.23
2022-09-28T01:29:48.571Z,5.90
2022-09-28T01:32:26.779Z,3.87
2022-09-28T01:35:02.791Z,3.67
2022-09-28T01:37:37.382Z,2.93
2022-09-28T01:40:08.301Z,2.97
2022-09-28T01:42:41.052Z,2.77
2022-09-28T01:45:15.502Z,5.03
2022-09-28T01:47:46.499Z,9.47
2022-09-28T01:50:18.564Z,5.23
2022-09-28T01:52:51.959Z,4.20
2022-09-28T01:55:29.405Z,3.00
2022-09-28T01:58:05.909Z,2.70
2022-09-28T02:00:37.264Z,2.70
2022-09-28T02:03:10.976Z,2.23
2022-09-28T02:05:50.664Z,2.73
2022-09-28T02:08:26.965Z,2.83
2022-09-28T02:11:02.499Z,2.20
2022-09-28T02:13:36.530Z,3.07
2022-09-28T02:16:11.923Z,2.73
2022-09-28T02:18:40.452Z,3.30
2022-09-28T02:21:15.863Z,3.30
2022-09-28T02:23:51.605Z,2.50
2022-09-28T02:26:24.155Z,2.67
2022-09-28T02:28:53.887Z,2.90
2022-09-28T02:31:22.479Z,2.30
2022-09-28T02:33:52.584Z,2.40
2022-09-28T02:36:21.091Z,2.90
2022-09-28T02:38:49.727Z,2.60
2022-09-28T02:41:31.770Z,2.70
2022-09-28T02:44:11.394Z,2.57
2022-09-28T02:46:50.485Z,3.07
2022-09-28T02:49:34.626Z,2.70
2022-09-28T02:52:16.464Z,2.50
2022-09-28T02:55:08.027Z,2.70
2022-09-28T02:57:48.887Z,2.47
2022-09-28T03:00:21.769Z,2.20
2022-09-28T03:03:00.226Z,2.80
2022-09-28T03:05:35.920Z,2.70
2022-09-28T03:08:08.161Z,2.60
2022-09-28T03:10:40.344Z,2.13
2022-09-28T03:13:10.091Z,2.50
2022-09-28T03:15:45.162Z,2.50
2022-09-28T03:18:16.379Z,3.27
2022-09-28T03:20:44.907Z,2.63
2022-09-28T03:23:24.497Z,2.50
2022-09-28T03:25:54.545Z,2.20
2022-09-28T03:28:23.292Z,3.03
2022-09-28T03:30:53.036Z,2.57
2022-09-28T03:33:21.879Z,3.60
2022-09-28T03:35:51.490Z,2.80
2022-09-28T03:38:20.530Z,2.50
2022-09-28T03:40:55.185Z,2.20
2022-09-28T03:43:24.183Z,2.87
2022-09-28T03:45:56.853Z,2.70
2022-09-28T03:48:31.901Z,2.83
2022-09-28T03:51:02.692Z,2.10
2022-09-28T03:53:31.261Z,3.03
2022-09-28T03:56:05.134Z,2.10
2022-09-28T03:58:34.527Z,2.30
2022-09-28T04:01:05.682Z,2.40
2022-09-28T04:03:34.726Z,2.90
2022-09-28T04:06:03.106Z,2.37
2022-09-28T04:08:32.025Z,2.00
2022-09-28T04:11:02.000Z,2.80
2022-09-28T04:13:32.080Z,2.40
2022-09-28T04:16:02.207Z,2.80
2022-09-28T04:18:35.480Z,2.90
2022-09-28T04:21:14.369Z,2.47
2022-09-28T04:23:48.903Z,2.70
2022-09-28T04:26:21.921Z,3.10
2022-09-28T04:29:08.345Z,3.00
2022-09-28T04:31:41.824Z,2.80
2022-09-28T04:34:11.842Z,2.30
2022-09-28T04:36:40.738Z,2.97
2022-09-28T04:39:10.108Z,2.30
2022-09-28T04:41:38.580Z,2.47
2022-09-28T04:44:07.139Z,3.90
2022-09-28T04:46:35.785Z,2.53
2022-09-28T04:49:25.583Z,2.50
2022-09-28T04:51:55.443Z,2.57
2022-09-28T04:54:23.744Z,2.90
2022-09-28T04:56:52.944Z,2.40
2022-09-28T04:59:21.377Z,3.00
2022-09-28T05:01:50.497Z,2.67
2022-09-28T05:04:25.755Z,2.57
2022-09-28T05:07:28.131Z,2.57
2022-09-28T05:09:57.059Z,2.37
2022-09-28T05:12:25.526Z,2.40
2022-09-28T05:14:53.899Z,2.70
2022-09-28T05:17:22.977Z,2.60
2022-09-28T05:20:07.665Z,3.43
2022-09-28T05:22:37.610Z,2.80
2022-09-28T05:25:09.365Z,2.70
2022-09-28T05:27:49.214Z,2.90
2022-09-28T05:30:38.926Z,2.10
2022-09-28T05:33:39.657Z,2.50
2022-09-28T05:36:13.317Z,2.30
2022-09-28T05:38:46.756Z,2.83
2022-09-28T05:41:15.653Z,2.30
2022-09-28T05:43:45.661Z,2.87
2022-09-28T05:46:14.575Z,2.50
2022-09-28T05:48:43.626Z,2.43
2022-09-28T05:51:12.086Z,2.90
2022-09-28T05:53:40.547Z,2.70
2022-09-28T05:56:10.354Z,3.33
2022-09-28T05:58:42.552Z,2.50
2022-09-28T06:01:12.430Z,3.40
2022-09-28T06:03:40.920Z,3.47
2022-09-28T06:06:09.348Z,3.20
2022-09-28T06:08:38.591Z,3.20
2022-09-28T06:11:28.149Z,5.63
2022-09-28T06:13:59.435Z,6.77
2022-09-28T06:16:31.156Z,5.10
2022-09-28T06:18:59.680Z,3.50
2022-09-28T06:21:59.294Z,3.00
2022-09-28T06:24:28.024Z,2.27
2022-09-28T06:26:57.727Z,2.33
2022-09-28T06:29:26.025Z,2.97
2022-09-28T06:31:54.689Z,3.30
2022-09-28T06:34:24.773Z,2.70
2022-09-28T06:37:12.055Z,3.13
2022-09-28T06:39:40.487Z,2.77
2022-09-28T06:42:10.381Z,3.63
2022-09-28T06:44:59.252Z,3.40
2022-09-28T06:47:44.761Z,3.20
2022-09-28T06:50:37.438Z,4.30
2022-09-28T06:53:24.281Z,4.17
2022-09-28T06:56:02.584Z,4.03
2022-09-28T06:58:33.220Z,3.90
2022-09-28T07:01:04.046Z,3.30
2022-09-28T07:03:42.065Z,3.63
2022-09-28T07:06:48.003Z,3.67
2022-09-28T07:09:36.934Z,3.30
2022-09-28T07:12:25.457Z,3.60
2022-09-28T07:14:58.252Z,2.93
2022-09-28T07:17:29.590Z,3.00
2022-09-28T07:20:14.321Z,3.80
2022-09-28T07:22:47.966Z,3.33
2022-09-28T07:25:20.635Z,3.70
2022-09-28T07:28:09.495Z,3.87
2022-09-28T07:30:48.351Z,4.83
2022-09-28T07:33:36.800Z,4.33
2022-09-28T07:36:24.387Z,4.23
2022-09-28T07:38:54.289Z,4.23
2022-09-28T07:41:32.547Z,4.33
2022-09-28T07:44:06.298Z,4.50
2022-09-28T07:46:38.121Z,4.90
2022-09-28T07:49:12.772Z,5.67
2022-09-28T07:51:59.301Z,4.30
2022-09-28T07:54:31.260Z,3.80
2022-09-28T07:57:15.267Z,4.17
2022-09-28T07:59:53.627Z,4.67
2022-09-28T08:02:43.721Z,4.80
2022-09-28T08:05:13.455Z,4.83
2022-09-28T08:07:43.926Z,5.00
2022-09-28T08:10:13.331Z,5.30
2022-09-28T08:13:08.583Z,4.60
2022-09-28T08:15:56.299Z,5.13
2022-09-28T08:18:36.023Z,4.23
2022-09-28T08:21:22.557Z,5.50
2022-09-28T08:23:51.153Z,4.90
2022-09-28T08:26:19.604Z,5.00
2022-09-28T08:28:48.672Z,4.90
2022-09-28T08:31:45.566Z,5.07
2022-09-28T08:34:24.492Z,4.50
2022-09-28T08:37:21.564Z,5.23
2022-09-28T08:40:25.030Z,5.20
2022-09-28T08:43:29.436Z,5.30
2022-09-28T08:46:14.738Z,4.30
2022-09-28T08:49:26.114Z,4.53
2022-09-28T08:52:14.998Z,4.30
2022-09-28T08:55:17.672Z,5.50
2022-09-28T08:57:52.483Z,5.43
2022-09-28T09:00:27.175Z,5.63
2022-09-28T09:03:17.328Z,4.90
2022-09-28T09:06:07.117Z,4.93
2022-09-28T09:09:12.095Z,5.60
2022-09-28T09:11:58.318Z,6.30
2022-09-28T09:14:44.392Z,6.03
2022-09-28T09:17:19.937Z,6.60
2022-09-28T09:20:26.968Z,5.80
2022-09-28T09:23:09.782Z,6.87
2022-09-28T09:25:43.469Z,7.03
2022-09-28T09:28:35.265Z,6.13
2022-09-28T09:31:13.729Z,6.67
2022-09-28T09:34:17.840Z,5.57
2022-09-28T09:37:16.752Z,5.67
2022-09-28T09:40:30.633Z,5.50
2022-09-28T09:43:48.800Z,6.37
2022-09-28T09:46:40.176Z,7.23
2022-09-28T09:49:35.104Z,5.63
2022-09-28T09:52:11.599Z,5.10
2022-09-28T09:54:44.499Z,5.20
2022-09-28T09:57:30.615Z,4.73
2022-09-28T10:00:19.911Z,5.10
2022-09-28T10:03:04.091Z,4.50
2022-09-28T10:05:45.075Z,4.07
2022-09-28T10:08:18.455Z,4.63
2022-09-28T10:10:52.715Z,3.43
2022-09-28T10:13:23.289Z,2.90
2022-09-28T10:15:57.228Z,3.97
2022-09-28T10:18:35.489Z,2.13
2022-09-28T10:21:24.880Z,2.67
2022-09-28T10:24:02.804Z,2.13
2022-09-28T10:26:36.691Z,2.30
2022-09-28T10:29:13.198Z,2.30
2022-09-28T10:31:45.633Z,2.27
2022-09-28T10:34:32.548Z,1.80
2022-09-28T10:37:12.267Z,2.33
2022-09-28T10:39:58.909Z,2.60
2022-09-28T10:42:36.155Z,3.00
2022-09-28T10:45:23.295Z,2.67
2022-09-28T10:47:53.995Z,2.60
2022-09-28T10:50:25.393Z,2.17
2022-09-28T10:53:14.301Z,2.30
2022-09-28T10:56:22.858Z,1.53
2022-09-28T10:59:00.153Z,1.50
2022-09-28T11:01:43.131Z,2.13
2022-09-28T11:04:21.633Z,1.70
2022-09-28T11:06:50.459Z,4.17
2022-09-28T11:09:30.643Z,2.60
2022-09-28T11:12:06.820Z,2.40
2022-09-28T11:14:42.465Z,1.90
2022-09-28T11:17:25.769Z,2.53
2022-09-28T11:19:56.154Z,2.77
2022-09-28T11:22:28.947Z,2.47
2022-09-28T11:25:24.153Z,2.60
2022-09-28T11:28:04.666Z,2.87
2022-09-28T11:30:40.611Z,3.17
2022-09-28T11:33:41.240Z,3.50
2022-09-28T11:36:45.991Z,2.00
2022-09-28T11:39:24.232Z,2.33
2022-09-28T11:42:05.943Z,2.70
2022-09-28T11:44:41.343Z,2.43
2022-09-28T11:47:36.359Z,2.60
2022-09-28T11:50:17.913Z,3.97
2022-09-28T11:52:57.691Z,2.40
2022-09-28T11:55:32.458Z,2.80
2022-09-28T11:58:06.236Z,2.80
2022-09-28T12:00:41.402Z,3.10
2022-09-28T12:03:15.614Z,2.60
2022-09-28T12:05:50.297Z,4.27
2022-09-28T12:08:27.443Z,3.10
2022-09-28T12:11:13.733Z,2.70
2022-09-28T12:14:03.888Z,3.90
2022-09-28T12:19:33.221Z,2.70
2022-09-28T12:22:06.373Z,2.30
2022-09-28T12:24:41.465Z,2.40
2022-09-28T12:27:18.746Z,2.50
2022-09-28T12:29:51.593Z,2.80
2022-09-28T12:32:29.616Z,2.97
2022-09-28T12:34:58.500Z,2.40
2022-09-28T12:37:40.432Z,2.00
2022-09-28T12:43:19.605Z,2.47
2022-09-28T12:46:12.055Z,1.63
2022-09-28T12:49:47.323Z,1.70
2022-09-28T12:51:52.311Z,1.90
2022-09-28T12:54:54.332Z,1.80
2022-09-28T12:57:37.176Z,1.83
2022-09-28T13:00:11.259Z,1.80
2022-09-28T13:03:08.976Z,1.93
2022-09-28T13:06:13.845Z,1.80
2022-09-28T13:08:57.617Z,1.87
2022-09-28T13:11:34.188Z,1.80
2022-09-28T13:14:35.101Z,1.20
2022-09-28T13:17:12.532Z,1.60
2022-09-28T13:19:48.302Z,1.20
2022-09-28T13:22:29.453Z,1.47
2022-09-28T13:25:04.059Z,1.60
2022-09-28T13:27:36.438Z,1.47
2022-09-28T13:30:07.981Z,1.37
2022-09-28T13:32:39.289Z,1.40
2022-09-28T13:35:08.530Z,1.80
2022-09-28T13:37:36.851Z,1.47
2022-09-28T13:40:06.375Z,1.43
2022-09-28T13:43:10.626Z,1.60
2022-09-28T13:45:53.729Z,1.70
2022-09-28T13:48:29.388Z,2.50
2022-09-28T13:51:23.613Z,2.50
2022-09-28T13:54:15.751Z,2.00
2022-09-28T13:56:54.994Z,2.30
2022-09-28T13:59:27.092Z,1.93
2022-09-28T14:02:06.759Z,2.57
2022-09-28T14:04:58.478Z,1.67
2022-09-28T14:10:20.891Z,2.10
2022-09-28T14:12:51.435Z,2.33
2022-09-28T14:15:47.405Z,2.43
2022-09-28T14:18:29.003Z,2.10
2022-09-28T14:21:29.487Z,1.90
2022-09-28T14:24:19.072Z,2.33
2022-09-28T14:27:12.909Z,2.30
2022-09-28T14:29:41.712Z,1.90
2022-09-28T14:32:24.633Z,2.20
2022-09-28T14:35:02.365Z,2.00
2022-09-28T14:37:52.065Z,1.70
2022-09-28T14:40:40.169Z,2.30
2022-09-28T14:43:26.900Z,1.90
2022-09-28T14:46:32.491Z,1.93
2022-09-28T14:49:03.206Z,1.83
2022-09-28T14:52:08.216Z,2.60
2022-09-28T14:54:46.405Z,1.80
2022-09-28T14:57:19.624Z,1.77
2022-09-28T14:59:48.500Z,2.20
2022-09-28T15:02:24.755Z,2.10
2022-09-28T15:04:57.013Z,1.90
2022-09-28T15:07:28.769Z,1.87
2022-09-28T15:09:59.511Z,1.80
2022-09-28T15:12:29.448Z,1.60
2022-09-28T15:15:02.193Z,2.07
2022-09-28T15:17:39.165Z,1.90
2022-09-28T15:20:21.800Z,2.30
2022-09-28T15:22:52.531Z,1.40
2022-09-28T15:25:26.073Z,1.87
2022-09-28T15:27:56.435Z,1.30
2022-09-28T15:30:28.172Z,1.87
2022-09-28T15:33:18.125Z,1.47
2022-09-28T15:35:48.257Z,1.80
2022-09-28T15:38:18.502Z,2.20
2022-09-28T15:40:48.702Z,1.67
2022-09-28T15:43:28.912Z,1.97
2022-09-28T15:46:07.332Z,1.77
2022-09-28T15:48:42.127Z,1.60
2022-09-28T15:51:12.230Z,1.93
2022-09-28T15:53:44.600Z,2.10
2022-09-28T15:56:14.416Z,1.80
2022-09-28T15:58:42.976Z,1.40
2022-09-28T16:01:27.040Z,1.50
2022-09-28T16:03:55.508Z,1.90
2022-09-28T16:06:24.268Z,1.87
2022-09-28T16:08:52.557Z,1.53
2022-09-28T16:11:26.448Z,1.50
2022-09-28T16:14:05.928Z,1.63
2022-09-28T16:16:41.250Z,2.40
2022-09-28T16:19:24.508Z,1.70
2022-09-28T16:21:55.698Z,1.87
2022-09-28T16:24:26.553Z,2.20
2022-09-28T16:27:02.378Z,1.80
2022-09-28T16:29:40.095Z,1.47
2022-09-28T16:32:35.478Z,1.70
2022-09-28T16:35:18.972Z,2.00
2022-09-28T16:37:48.880Z,1.70
2022-09-28T16:40:17.460Z,1.93
2022-09-28T16:42:49.272Z,2.17
2022-09-28T16:45:21.562Z,1.70
2022-09-28T16:47:53.017Z,2.20
2022-09-28T16:50:22.265Z,1.87
2022-09-28T16:53:14.813Z,1.73
2022-09-28T16:55:43.163Z,1.70
2022-09-28T16:58:13.131Z,1.80
2022-09-28T17:00:43.529Z,1.93
2022-09-28T17:03:15.781Z,1.90
2022-09-28T17:05:44.469Z,2.00
2022-09-28T17:08:17.501Z,1.70
2022-09-28T17:11:13.015Z,2.00
2022-09-28T17:13:40.942Z,1.60
2022-09-28T17:16:13.958Z,1.60
2022-09-28T17:18:42.377Z,1.50
2022-09-28T17:21:15.822Z,1.60
2022-09-28T17:23:44.630Z,1.80
2022-09-28T17:26:19.512Z,1.40
2022-09-28T17:28:49.352Z,1.92
2022-09-28T17:31:18.020Z,1.70
2022-09-28T17:33:46.472Z,1.70
2022-09-28T17:36:16.847Z,1.30
2022-09-28T17:38:46.225Z,1.50
2022-09-28T17:41:20.264Z,1.40
2022-09-28T17:43:50.791Z,1.60
2022-09-28T17:46:27.409Z,1.60
2022-09-28T17:48:57.607Z,1.40
2022-09-28T17:51:26.469Z,1.30
2022-09-28T17:53:56.174Z,1.55
2022-09-28T17:56:27.558Z,1.80
2022-09-28T17:59:03.289Z,1.87
2022-09-28T18:01:34.385Z,1.40
2022-09-28T18:04:04.175Z,1.90
2022-09-28T18:06:33.619Z,1.80
2022-09-28T18:09:03.027Z,2.47
2022-09-28T18:11:31.722Z,2.07
2022-09-28T18:14:01.701Z,2.37
2022-09-28T18:16:30.287Z,1.40
2022-09-28T18:18:59.789Z,2.03
2022-09-28T18:21:28.076Z,1.67
2022-09-28T18:23:56.522Z,2.10
2022-09-28T18:26:24.857Z,2.17
2022-09-28T18:28:55.232Z,2.10
2022-09-28T18:31:24.944Z,1.80
2022-09-28T18:34:00.307Z,1.40
2022-09-28T18:36:32.392Z,2.00
2022-09-28T18:39:02.050Z,1.83
2022-09-28T18:41:30.433Z,1.97
2022-09-28T18:44:00.857Z,2.30
2022-09-28T18:46:36.763Z,2.03
2022-09-28T18:49:05.882Z,2.00
2022-09-28T18:51:34.204Z,2.10
2022-09-28T18:54:07.313Z,2.00
2022-09-28T18:56:38.037Z,1.60
2022-09-28T18:59:11.923Z,1.80
2022-09-28T19:01:43.282Z,1.97
2022-09-28T19:04:13.607Z,1.97
2022-09-28T19:06:44.461Z,1.60
2022-09-28T19:09:13.248Z,1.90
2022-09-28T19:11:41.737Z,2.00
2022-09-28T19:14:11.568Z,1.47
2022-09-28T19:16:41.273Z,1.70
2022-09-28T19:19:12.397Z,1.63
2022-09-28T19:21:41.377Z,1.43
2022-09-28T19:24:13.256Z,1.83
2022-09-28T19:26:42.046Z,1.47
2022-09-28T19:29:11.720Z,1.87
2022-09-28T19:31:43.268Z,1.60
2022-09-28T19:34:14.154Z,1.80
2022-09-28T19:36:43.153Z,1.53
2022-09-28T19:39:14.760Z,2.23
2022-09-28T19:41:49.591Z,1.57
2022-09-28T19:44:24.891Z,1.90
2022-09-28T19:46:56.252Z,2.20
2022-09-28T19:49:25.902Z,1.70
2022-09-28T19:52:12.079Z,2.13
2022-09-28T19:54:43.871Z,1.67
2022-09-28T19:57:12.948Z,2.50
2022-09-28T19:59:41.470Z,1.77
2022-09-28T20:02:12.146Z,1.40
2022-09-28T20:04:40.627Z,1.80
2022-09-28T20:07:09.033Z,1.70
2022-09-28T20:09:37.360Z,1.60
2022-09-28T20:12:05.928Z,2.10
2022-09-28T20:14:39.469Z,2.00
2022-09-28T20:17:10.281Z,2.10
2022-09-28T20:19:38.649Z,1.73
2022-09-28T20:22:06.994Z,1.70
2022-09-28T20:24:35.275Z,2.00
2022-09-28T20:27:03.679Z,2.20
2022-09-28T20:29:33.345Z,1.90
2022-09-28T20:32:04.014Z,1.80
2022-09-28T20:34:34.526Z,1.80
2022-09-28T20:37:02.894Z,1.87
2022-09-28T20:39:31.240Z,1.80
2022-09-28T20:41:59.578Z,1.50
2022-09-28T20:44:28.244Z,1.50
2022-09-28T20:46:56.819Z,1.47
2022-09-28T20:49:27.173Z,1.33
2022-09-28T20:51:56.908Z,1.57
2022-09-28T20:54:25.598Z,1.70
2022-09-28T20:56:53.928Z,1.37
2022-09-28T20:59:25.961Z,1.70
2022-09-28T21:01:54.365Z,1.77
2022-09-28T21:04:22.800Z,2.67
2022-09-28T21:06:51.319Z,2.00
2022-09-28T21:09:21.102Z,1.83
2022-09-28T21:11:49.336Z,1.90
2022-09-28T21:14:17.751Z,2.03
2022-09-28T21:16:46.158Z,1.90
2022-09-28T21:19:15.531Z,2.33
2022-09-28T21:21:45.625Z,1.93
2022-09-28T21:24:17.305Z,2.00
2022-09-28T21:26:49.561Z,2.20
2022-09-28T21:29:19.816Z,1.70
2022-09-28T21:31:51.680Z,2.40
2022-09-28T21:34:22.147Z,1.80
2022-09-28T21:36:52.550Z,2.10
2022-09-28T21:39:21.208Z,2.10
2022-09-28T21:41:50.916Z,2.00
2022-09-28T21:44:19.253Z,2.33
2022-09-28T21:46:47.762Z,2.03
2022-09-28T21:49:16.072Z,2.00
2022-09-28T21:51:47.014Z,1.97
2022-09-28T21:54:15.466Z,2.50
2022-09-28T21:56:43.949Z,2.90
2022-09-28T21:59:13.552Z,2.67
2022-09-28T22:01:42.630Z,2.53
2022-09-28T22:04:12.033Z,3.17
2022-09-28T22:06:40.826Z,2.97
2022-09-28T22:09:09.228Z,2.93
2022-09-28T22:11:38.308Z,2.97
2022-09-28T22:14:06.714Z,3.53
2022-09-28T22:16:36.401Z,3.30
2022-09-28T22:19:04.842Z,3.87
2022-09-28T22:21:34.970Z,2.80
2022-09-28T22:24:05.537Z,3.20
2022-09-28T22:26:35.788Z,3.10
2022-09-28T22:29:06.631Z,3.77
2022-09-28T22:31:39.098Z,4.10
2022-09-28T22:34:08.245Z,3.73
2022-09-28T22:36:36.878Z,3.40
2022-09-28T22:39:05.655Z,4.03
2022-09-28T22:41:34.203Z,4.13
2022-09-28T22:44:02.964Z,3.97
2022-09-28T22:46:32.593Z,4.10
2022-09-28T22:49:02.786Z,4.07
2022-09-28T22:51:32.454Z,3.53
2022-09-28T22:54:01.243Z,4.03
2022-09-28T22:56:30.144Z,4.60
2022-09-28T22:58:58.816Z,4.83
2022-09-28T23:01:29.008Z,7.03
2022-09-28T23:03:58.254Z,5.60
2022-09-28T23:06:30.771Z,5.27
2022-09-28T23:08:59.226Z,4.27
2022-09-28T23:11:27.889Z,5.10
2022-09-28T23:13:58.156Z,5.53
2022-09-28T23:16:27.728Z,6.40
2022-09-28T23:18:56.887Z,6.00
2022-09-28T23:21:28.099Z,6.67
2022-09-28T23:23:58.565Z,6.80
2022-09-28T23:26:29.436Z,6.10
2022-09-28T23:28:58.456Z,6.73
2022-09-28T23:31:28.799Z,6.03
2022-09-28T23:34:01.244Z,7.37
2022-09-28T23:36:31.553Z,6.90
2022-09-28T23:39:00.118Z,7.13
2022-09-28T23:41:28.568Z,7.50
2022-09-28T23:43:57.187Z,7.27
2022-09-28T23:46:25.675Z,7.70
2022-09-28T23:48:54.120Z,7.30
2022-09-28T23:51:22.541Z,7.67
2022-09-28T23:53:52.259Z,6.53
2022-09-28T23:56:21.154Z,7.23
2022-09-28T23:58:49.567Z,7.50
